Time;durP1;ratioP1;P1;durP2;ratioP2;P2;SDS_P1;SDS_P2;PMS_P1;PMS_P2;Temp;Humidity;BMP_temperature;BMP_pressure;BME280_temperature;BME280_humidity;BME280_pressure;Samples;Min_cycle;Max_cycle;Signal;HPM_P1;HPM_P2
2022/08/24 00:02:07;;;;;;;4.22;2.70;;;17.90;99.90;;;;;;20948595;28;20040;-75
2022/08/24 00:12:08;;;;;;;4.20;2.50;;;17.80;99.90;;;;;;20940559;28;20037;-75
2022/08/24 00:22:09;;;;;;;3.20;2.55;;;17.70;99.90;;;;;;20950738;28;20068;-76
2022/08/24 00:32:10;;;;;;;3.13;2.40;;;17.50;99.90;;;;;;20954327;28;20032;-76
2022/08/24 00:42:11;;;;;;;4.27;3.20;;;17.40;99.90;;;;;;20959359;28;20028;-76
2022/08/24 00:52:30;;;;;;;4.90;3.20;;;17.20;99.90;;;;;;20974596;28;20552;-76
2022/08/24 01:02:34;;;;;;;5.65;3.15;;;17.10;99.90;;;;;;20963909;28;20060;-76
2022/08/24 01:12:38;;;;;;;5.53;3.17;;;17.00;99.90;;;;;;20977781;28;20109;-77
2022/08/24 01:22:55;;;;;;;5.13;2.60;;;16.90;99.90;;;;;;20954870;28;20082;-76
2022/08/24 01:32:59;;;;;;;5.05;2.90;;;16.90;99.90;;;;;;20919897;28;20048;-76
2022/08/24 01:43:00;;;;;;;6.35;3.30;;;16.70;99.90;;;;;;20917580;28;20032;-76
2022/08/24 01:53:05;;;;;;;4.60;3.35;;;16.60;99.90;;;;;;20924427;28;20507;-76
2022/08/24 02:03:06;;;;;;;7.03;3.40;;;16.40;99.90;;;;;;20915786;28;20039;-76
2022/08/24 02:13:07;;;;;;;5.43;3.20;;;16.30;99.90;;;;;;20914711;28;20039;-76
2022/08/24 02:23:08;;;;;;;5.70;3.37;;;16.30;99.90;;;;;;20914034;28;20086;-76
2022/08/24 02:33:10;;;;;;;4.47;3.33;;;16.20;99.90;;;;;;20914937;28;20037;-76
2022/08/24 02:43:11;;;;;;;5.25;3.50;;;16.20;99.90;;;;;;20912452;28;20116;-77
2022/08/24 02:53:15;;;;;;;6.50;3.80;;;16.10;99.90;;;;;;20911789;28;20028;-76
2022/08/24 03:03:16;;;;;;;5.32;3.20;;;16.00;99.90;;;;;;20910930;28;20118;-76
2022/08/24 03:13:17;;;;;;;7.90;3.73;;;16.20;99.90;;;;;;20916589;28;20056;-76
2022/08/24 03:23:19;;;;;;;5.80;3.35;;;15.90;99.90;;;;;;20909303;28;20063;-76
2022/08/24 03:33:21;;;;;;;7.88;3.75;;;15.80;99.90;;;;;;20908633;28;20037;-76
2022/08/24 03:53:42;;;;;;;5.68;3.72;;;15.80;99.90;;;;;;20907254;28;20024;-76
2022/08/24 04:03:45;;;;;;;8.45;4.18;;;15.90;99.90;;;;;;20907074;28;20098;-75
2022/08/24 04:13:48;;;;;;;6.53;4.18;;;15.60;99.90;;;;;;20907430;28;20044;-75
2022/08/24 04:23:53;;;;;;;14.75;6.28;;;15.40;99.90;;;;;;20908035;28;20079;-76
2022/08/24 04:33:54;;;;;;;8.15;4.40;;;15.20;99.90;;;;;;20913721;28;20037;-78
2022/08/24 04:43:55;;;;;;;7.87;4.27;;;15.30;99.90;;;;;;20923002;28;20544;-77
2022/08/24 04:53:56;;;;;;;7.60;4.20;;;15.40;99.90;;;;;;20907676;28;20033;-78
2022/08/24 05:03:58;;;;;;;6.33;4.40;;;15.70;99.90;;;;;;20909822;28;20041;-78
2022/08/24 05:13:59;;;;;;;5.05;3.80;;;15.90;99.90;;;;;;20908318;28;20513;-77
2022/08/24 05:24:01;;;;;;;;;;;15.90;99.90;;;;;;20897153;28;20136;-78
2022/08/24 05:34:05;;;;;;;9.65;3.92;;;16.10;99.90;;;;;;20932045;28;19944;-79
2022/08/24 05:44:08;;;;;;;7.67;3.67;;;16.20;99.90;;;;;;20926955;23;20041;-77
2022/08/24 05:54:10;;;;;;;6.40;3.72;;;16.40;99.90;;;;;;20916694;28;20033;-77
2022/08/24 06:04:23;;;;;;;7.43;4.65;;;16.60;99.90;;;;;;20917256;28;20033;-77
2022/08/24 06:14:24;;;;;;;6.93;3.83;;;17.00;99.90;;;;;;20928760;28;20096;-77
2022/08/24 06:34:55;;;;;;;4.13;3.30;;;17.70;99.90;;;;;;20916019;28;20033;-77
2022/08/24 06:44:56;;;;;;;9.93;3.70;;;18.40;99.90;;;;;;20918117;28;20028;-78
2022/08/24 06:54:59;;;;;;;4.15;3.03;;;19.10;99.90;;;;;;20877611;28;20076;-77
2022/08/24 07:05:00;;;;;;;;;;;19.20;99.90;;;;;;20830491;28;20082;-77
2022/08/24 07:15:20;;;;;;;11.10;2.83;;;20.00;99.90;;;;;;20831077;28;20360;-78
2022/08/24 07:25:33;;;;;;;5.43;2.90;;;21.10;99.90;;;;;;20827173;28;20391;-77
2022/08/24 07:35:37;;;;;;;7.10;2.78;;;21.30;99.90;;;;;;20835737;28;20420;-77
2022/08/24 07:45:40;;;;;;;7.50;3.08;;;21.70;99.90;;;;;;20826936;28;20491;-77
2022/08/24 07:55:42;;;;;;;3.38;2.53;;;22.10;99.90;;;;;;20826865;28;20067;-76
2022/08/24 08:05:44;;;;;;;4.55;2.40;;;23.00;99.90;;;;;;20823730;28;20040;-76
2022/08/24 08:15:45;;;;;;;4.95;2.47;;;23.90;99.90;;;;;;20824590;28;20099;-76
2022/08/24 08:25:53;;;;;;;7.05;2.47;;;23.70;99.90;;;;;;20824307;28;20029;-76
2022/08/24 08:36:09;;;;;;;2.55;2.30;;;25.50;99.90;;;;;;20831984;28;20025;-76
2022/08/24 08:46:47;;;;;;;4.32;2.25;;;25.10;99.90;;;;;;20902128;28;20056;-77
2022/08/24 08:57:13;;;;;;;4.35;2.15;;;26.00;99.90;;;;;;20969811;28;20048;-77
2022/08/24 09:07:33;;;;;;;6.40;1.80;;;26.60;99.90;;;;;;20933911;28;20029;-77
2022/08/24 09:17:57;;;;;;;3.47;1.73;;;27.10;99.90;;;;;;20924014;28;20511;-77
2022/08/24 09:28:21;;;;;;;6.20;1.80;;;28.40;99.90;;;;;;20809994;28;20660;-77
2022/08/24 09:38:50;;;;;;;2.20;1.33;;;28.70;99.90;;;;;;20843639;28;20079;-77
2022/08/24 09:49:25;;;;;;;1.55;0.95;;;28.80;99.90;;;;;;20837954;28;20030;-78
2022/08/24 09:59:41;;;;;;;6.30;1.00;;;28.60;99.90;;;;;;20781559;28;20033;-77
2022/08/24 10:10:12;;;;;;;2.63;0.95;;;29.70;99.80;;;;;;20772248;28;20060;-78
2022/08/24 10:20:39;;;;;;;1.00;0.80;;;30.30;98.20;;;;;;20796765;28;20029;-78
2022/08/24 10:31:04;;;;;;;3.13;1.08;;;30.30;97.00;;;;;;20721387;28;20041;-78
2022/08/24 10:41:41;;;;;;;3.78;1.20;;;30.40;97.20;;;;;;20755265;28;20037;-78
2022/08/24 10:52:02;;;;;;;3.28;0.90;;;31.10;94.80;;;;;;20777764;28;20056;-78
2022/08/24 11:02:10;;;;;;;1.85;0.70;;;31.40;93.40;;;;;;20801158;28;20060;-77
2022/08/24 11:12:28;;;;;;;4.50;1.35;;;31.30;92.50;;;;;;20859687;28;20029;-77
2022/08/24 11:22:54;;;;;;;1.08;0.90;;;31.50;91.70;;;;;;20877347;28;20697;-77
2022/08/24 11:33:00;;;;;;;5.80;0.90;;;31.40;92.30;;;;;;20874380;28;20037;-77
2022/08/24 11:43:14;;;;;;;2.97;0.82;;;31.90;90.60;;;;;;20914709;28;20056;-78
2022/08/24 11:53:52;;;;;;;4.53;0.80;;;31.90;87.80;;;;;;20878193;28;20036;-78
2022/08/24 12:04:04;;;;;;;1.63;0.77;;;32.20;88.30;;;;;;20774233;28;20030;-77
2022/08/24 12:14:11;;;;;;;1.20;0.70;;;32.40;85.30;;;;;;20856838;28;20057;-75
2022/08/24 12:24:28;;;;;;;2.80;0.70;;;32.50;83.40;;;;;;20885744;28;20044;-80
2022/08/24 12:34:48;;;;;;;1.20;0.88;;;32.60;84.30;;;;;;20856729;28;20033;-80
2022/08/24 12:44:59;;;;;;;1.23;0.80;;;33.00;81.90;;;;;;20875841;28;20087;-77
2022/08/24 12:55:03;;;;;;;1.83;0.93;;;32.90;82.30;;;;;;20903907;28;20025;-81
2022/08/24 13:05:14;;;;;;;2.70;0.73;;;32.30;81.50;;;;;;20895394;28;20040;-81
2022/08/24 13:15:30;;;;;;;1.40;0.63;;;32.70;81.40;;;;;;20911637;28;20040;-79
2022/08/24 13:25:46;;;;;;;1.48;0.60;;;31.90;80.50;;;;;;20910972;28;20028;-78
2022/08/24 13:35:55;;;;;;;1.58;0.60;;;31.50;80.30;;;;;;20897425;28;20112;-81
2022/08/24 13:46:11;;;;;;;3.00;0.73;;;31.30;80.60;;;;;;20894509;28;20034;-80
2022/08/24 13:56:28;;;;;;;1.05;0.60;;;31.20;81.90;;;;;;20891245;28;20025;-80
2022/08/24 14:06:41;;;;;;;1.40;0.40;;;31.80;76.50;;;;;;20917409;28;20439;-79
2022/08/24 14:27:43;;;;;;;0.88;0.50;;;32.00;76.00;;;;;;20872063;28;20511;-80
2022/08/24 14:38:07;;;;;;;5.07;0.47;;;31.70;75.10;;;;;;20866707;28;20037;-80
2022/08/24 14:48:49;;;;;;;1.30;0.30;;;31.90;71.70;;;;;;20856484;28;20056;-81
2022/08/24 14:59:06;;;;;;;3.50;0.50;;;32.00;72.00;;;;;;20857872;28;20479;-80
2022/08/24 15:09:34;;;;;;;0.75;0.30;;;31.80;72.60;;;;;;20856742;28;20085;-80
2022/08/24 15:19:46;;;;;;;0.75;0.50;;;31.40;74.30;;;;;;20851510;28;20459;-80
2022/08/24 15:29:49;;;;;;;0.95;0.50;;;31.30;75.40;;;;;;20849401;28;20040;-78
2022/08/24 15:39:50;;;;;;;4.25;0.45;;;31.00;75.50;;;;;;20840262;28;20029;-77
2022/08/24 15:49:54;;;;;;;2.05;0.70;;;30.90;78.10;;;;;;20838613;28;20037;-78
2022/08/24 16:00:07;;;;;;;0.98;0.52;;;30.90;80.70;;;;;;20841930;28;20064;-78
2022/08/24 16:10:11;;;;;;;1.52;0.80;;;30.10;83.30;;;;;;20805488;28;20026;-78
2022/08/24 16:20:32;;;;;;;1.15;0.60;;;29.70;86.20;;;;;;20760996;28;20034;-78
2022/08/24 16:30:54;;;;;;;4.45;0.60;;;29.00;86.70;;;;;;20789962;28;20099;-78
2022/08/24 16:41:07;;;;;;;1.40;0.68;;;28.70;89.00;;;;;;20845246;28;20121;-76
2022/08/24 16:51:08;;;;;;;0.77;0.60;;;28.60;89.30;;;;;;20845338;28;20376;-78
2022/08/24 17:01:09;;;;;;;1.13;0.67;;;28.60;90.10;;;;;;20856634;28;20037;-78
2022/08/24 17:11:10;;;;;;;1.70;1.10;;;28.20;91.40;;;;;;20848180;28;20772;-78
2022/08/24 17:21:11;;;;;;;4.93;0.82;;;28.10;91.80;;;;;;20849819;28;20025;-77
2022/08/24 17:31:12;;;;;;;3.45;0.80;;;28.10;92.20;;;;;;20879093;28;20021;-78
2022/08/24 17:41:14;;;;;;;2.28;1.00;;;27.60;93.00;;;;;;20889621;23;20048;-76
2022/08/24 17:51:15;;;;;;;1.77;0.93;;;27.20;94.20;;;;;;20830003;28;20018;-75
2022/08/24 18:01:16;;;;;;;2.10;0.90;;;26.90;94.90;;;;;;20836276;28;20108;-75
2022/08/24 18:11:17;;;;;;;3.00;1.33;;;26.30;96.10;;;;;;20832497;28;20049;-75
2022/08/24 18:21:18;;;;;;;4.80;1.10;;;25.80;97.50;;;;;;20841805;28;20080;-75
2022/08/24 18:31:23;;;;;;;6.20;2.30;;;25.60;98.40;;;;;;20828421;28;20442;-75
2022/08/24 18:41:30;;;;;;;4.93;1.38;;;25.30;99.10;;;;;;20835136;28;20041;-75
2022/08/24 18:51:34;;;;;;;2.22;1.00;;;24.80;99.90;;;;;;20832550;28;20446;-76
2022/08/24 19:02:28;;;;;;;3.67;1.30;;;24.50;99.90;;;;;;20831972;28;20029;-76
2022/08/24 19:11:56;;;;;;;3.58;1.58;;;24.10;99.90;;;;;;20830291;28;20075;-75
2022/08/24 19:21:57;;;;;;;4.10;1.80;;;23.70;99.90;;;;;;20829875;28;20041;-75
2022/08/24 19:31:58;;;;;;;3.55;1.70;;;23.60;99.90;;;;;;20829453;28;20340;-75
2022/08/24 19:41:59;;;;;;;5.20;2.00;;;23.40;99.90;;;;;;20827299;28;20033;-75
2022/08/24 19:52:01;;;;;;;5.17;1.90;;;22.90;99.90;;;;;;20825939;28;20033;-75
2022/08/24 20:02:02;;;;;;;7.13;2.05;;;22.70;99.90;;;;;;20828320;28;20107;-75
2022/08/24 20:12:03;;;;;;;4.20;2.00;;;22.30;99.90;;;;;;20828010;28;20037;-75
2022/08/24 20:22:04;;;;;;;3.63;2.22;;;22.10;99.90;;;;;;20826040;28;20087;-75
2022/08/24 20:32:05;;;;;;;2.80;2.15;;;22.00;99.90;;;;;;20824698;28;20492;-75
2022/08/24 20:42:06;;;;;;;3.37;2.13;;;21.90;99.90;;;;;;20824082;28;20033;-75
2022/08/24 20:52:07;;;;;;;5.33;2.30;;;21.70;99.90;;;;;;20824290;28;20507;-75
2022/08/24 21:02:08;;;;;;;3.70;2.70;;;21.60;99.90;;;;;;20835178;28;20125;-75
2022/08/24 21:12:09;;;;;;;3.87;2.27;;;21.40;99.90;;;;;;20839068;28;20531;-75
2022/08/24 21:22:10;;;;;;;6.50;2.43;;;21.40;99.90;;;;;;20838707;28;20056;-75
2022/08/24 21:42:38;;;;;;;4.30;2.65;;;21.10;99.90;;;;;;20821980;28;20503;-74
2022/08/24 21:52:40;;;;;;;7.53;2.40;;;21.00;99.90;;;;;;20836628;28;20059;-75
2022/08/24 22:02:41;;;;;;;5.63;2.63;;;20.90;99.90;;;;;;20836121;28;20029;-76
2022/08/24 22:12:42;;;;;;;4.57;2.73;;;20.90;99.90;;;;;;20834051;28;20025;-77
2022/08/24 22:22:43;;;;;;;;;;;20.90;99.90;;;;;;20833703;28;20033;-77
2022/08/24 22:32:45;;;;;;;3.85;2.30;;;20.80;99.90;;;;;;20833419;28;19959;-76
2022/08/24 22:42:45;;;;;;;5.35;2.53;;;20.50;99.90;;;;;;20830981;28;20044;-76
2022/08/24 22:52:46;;;;;;;4.67;2.90;;;20.40;99.90;;;;;;20830837;28;20029;-77
2022/08/24 23:02:47;;;;;;;4.50;2.50;;;20.40;99.90;;;;;;20829307;28;20116;-76
2022/08/24 23:12:48;;;;;;;4.30;2.70;;;20.20;99.90;;;;;;20831287;28;20037;-76
2022/08/24 23:22:49;;;;;;;3.97;2.77;;;20.10;99.90;;;;;;20829449;28;20033;-77
2022/08/24 23:32:50;;;;;;;3.57;2.57;;;19.90;99.90;;;;;;20827794;28;20029;-77
2022/08/24 23:42:51;;;;;;;3.07;2.33;;;19.70;99.90;;;;;;20878049;23;20049;-80
2022/08/24 23:52:51;;;;;;;4.07;2.50;;;19.90;99.90;;;;;;20926209;28;20568;-78
